Time;durP1;ratioP1;P1;durP2;ratioP2;P2;SDS_P1;SDS_P2;PMS_P1;PMS_P2;Temp;Humidity;BMP_temperature;BMP_pressure;BME280_temperature;BME280_humidity;BME280_pressure;Samples;Min_cycle;Max_cycle;Signal;HPM_P1;HPM_P2
2022/09/13 00:00:49;;;;;;;10.00;6.70;;;;;;;12.45;100.00;100116.41;5036973;28;20048;-77
2022/09/13 00:03:19;;;;;;;8.40;6.13;;;;;;;12.45;100.00;100113.72;5037067;28;20049;-76
2022/09/13 00:06:08;;;;;;;9.73;6.80;;;;;;;12.35;100.00;100103.75;5036821;28;20046;-77
2022/09/13 00:08:37;;;;;;;9.00;6.63;;;;;;;12.20;100.00;100114.56;5036701;28;20502;-78
2022/09/13 00:11:05;;;;;;;10.05;7.15;;;;;;;12.32;100.00;100111.03;5036571;28;20404;-78
2022/09/13 00:13:33;;;;;;;9.32;6.80;;;;;;;12.24;100.00;100118.72;5036297;28;20042;-78
2022/09/13 00:16:03;;;;;;;9.02;6.72;;;;;;;12.24;100.00;100112.50;5036400;28;20076;-78
2022/09/13 00:18:33;;;;;;;9.25;6.80;;;;;;;12.15;100.00;100113.16;5034916;28;20049;-79
2022/09/13 00:21:07;;;;;;;8.80;6.75;;;;;;;12.11;100.00;100119.69;5036328;28;20048;-79
2022/09/13 00:23:36;;;;;;;9.13;6.30;;;;;;;12.15;100.00;100115.81;5036341;28;20053;-82
2022/09/13 00:26:05;;;;;;;8.60;5.80;;;;;;;12.04;100.00;100114.75;5036579;28;20095;-81
2022/09/13 00:28:33;;;;;;;10.15;6.22;;;;;;;11.93;100.00;100111.94;5034915;28;20053;-78
2022/09/13 00:31:02;;;;;;;9.38;5.78;;;;;;;11.88;100.00;100103.41;5036235;28;20084;-78
2022/09/13 00:33:30;;;;;;;8.10;5.38;;;;;;;11.90;100.00;100096.13;5036022;28;20091;-77
2022/09/13 00:36:20;;;;;;;7.53;5.30;;;;;;;11.95;100.00;100111.84;5036031;28;20054;-82
2022/09/13 00:38:48;;;;;;;9.25;5.93;;;;;;;11.87;100.00;100107.03;5036518;28;20083;-82
2022/09/13 00:41:18;;;;;;;8.25;5.63;;;;;;;11.85;100.00;100103.59;5036001;28;20096;-83
2022/09/13 00:43:50;;;;;;;10.20;5.85;;;;;;;11.84;100.00;100101.88;5036141;28;20128;-79
2022/09/13 00:46:25;;;;;;;7.85;5.10;;;;;;;11.81;100.00;100095.91;5035960;28;20554;-84
2022/09/13 00:49:00;;;;;;;8.63;5.22;;;;;;;11.85;100.00;100103.59;5036141;28;20435;-84
2022/09/13 00:51:30;;;;;;;7.82;4.90;;;;;;;11.81;100.00;100102.09;5035625;28;20046;-83
2022/09/13 00:54:00;;;;;;;7.45;4.78;;;;;;;11.77;100.00;100105.88;5036169;28;20073;-80
2022/09/13 00:56:33;;;;;;;8.52;5.10;;;;;;;11.72;100.00;100103.53;5035890;28;20079;-81
2022/09/13 00:59:04;;;;;;;6.75;4.50;;;;;;;11.79;100.00;100112.00;5035960;28;20452;-80
2022/09/13 01:01:39;;;;;;;8.32;4.95;;;;;;;11.93;100.00;100111.94;5036021;28;20048;-84
2022/09/13 01:04:07;;;;;;;10.73;5.30;;;;;;;11.88;100.00;100111.41;5036497;28;20119;-82
2022/09/13 01:06:42;;;;;;;9.82;6.15;;;;;;;11.80;100.00;100111.06;5035161;28;20041;-86
2022/09/13 01:09:12;;;;;;;9.63;6.53;;;;;;;11.87;100.00;100111.50;5035081;28;20480;-81
2022/09/13 01:11:46;;;;;;;9.18;6.05;;;;;;;11.95;100.00;100104.69;5035977;28;20106;-82
2022/09/13 01:14:14;;;;;;;;;;;;;;;12.10;100.00;100107.28;5036555;28;20045;-81
2022/09/13 01:16:42;;;;;;;9.38;5.70;;;;;;;12.21;100.00;100104.72;5036075;28;19929;-83
2022/09/13 01:19:15;;;;;;;8.37;5.40;;;;;;;12.14;100.00;100114.09;5036067;28;20052;-83
2022/09/13 01:22:18;;;;;;;9.02;5.22;;;;;;;12.11;100.00;100103.63;5035861;28;20053;-85
2022/09/13 01:25:04;;;;;;;8.93;5.40;;;;;;;11.91;100.00;100097.84;5035624;28;20045;-81
2022/09/13 01:27:41;;;;;;;8.05;5.43;;;;;;;11.92;100.00;100104.03;5035464;28;20080;-81
2022/09/13 01:30:35;;;;;;;8.45;4.78;;;;;;;12.04;100.00;100100.53;5035457;28;20502;-78
2022/09/13 01:33:31;;;;;;;9.68;5.32;;;;;;;11.99;100.00;100098.19;5035386;28;20091;-78
2022/09/13 01:36:19;;;;;;;9.80;5.13;;;;;;;11.84;100.00;100101.88;5035715;28;20061;-81
2022/09/13 01:38:58;;;;;;;10.55;5.50;;;;;;;11.74;100.00;100104.28;5035394;28;20475;-81
2022/09/13 01:41:57;;;;;;;7.20;5.03;;;;;;;11.84;100.00;100101.03;5035479;28;20053;-82
2022/09/13 01:44:38;;;;;;;10.38;6.50;;;;;;;11.84;100.00;100103.69;5035322;28;20068;-81
2022/09/13 01:47:23;;;;;;;9.50;5.45;;;;;;;11.69;100.00;100102.91;5035449;28;20392;-81
2022/09/13 01:50:01;;;;;;;8.38;5.35;;;;;;;11.81;100.00;100104.75;5035175;28;20069;-82
2022/09/13 01:52:38;;;;;;;9.35;6.22;;;;;;;11.72;100.00;100100.00;5034014;28;20049;-84
2022/09/13 01:55:12;;;;;;;14.00;6.43;;;;;;;11.56;100.00;100096.63;5035354;28;20076;-86
2022/09/13 01:57:48;;;;;;;9.50;5.43;;;;;;;11.50;100.00;100097.94;5035411;28;20052;-86
2022/09/13 02:00:18;;;;;;;10.52;5.53;;;;;;;11.27;100.00;100094.06;5035821;28;20042;-86
2022/09/13 02:02:50;;;;;;;9.73;5.72;;;;;;;11.32;100.00;100091.13;5035317;28;20072;-86
2022/09/13 02:05:23;;;;;;;10.07;6.13;;;;;;;11.14;100.00;100091.38;5035339;28;20403;-85
2022/09/13 02:07:57;;;;;;;9.75;5.78;;;;;;;11.24;100.00;100099.63;5035544;28;20477;-84
2022/09/13 02:10:31;;;;;;;8.48;5.72;;;;;;;11.14;100.00;100096.69;5035499;28;20080;-85
2022/09/13 02:12:59;;;;;;;8.65;5.18;;;;;;;11.19;100.00;100093.72;5034425;28;20042;-81
2022/09/13 02:15:33;;;;;;;8.77;5.50;;;;;;;11.16;100.00;100096.59;5034185;28;20530;-81
2022/09/13 02:18:07;;;;;;;8.15;5.70;;;;;;;10.99;100.00;100091.50;5033841;28;20499;-81
2022/09/13 02:20:38;;;;;;;8.60;5.32;;;;;;;10.95;100.00;100098.00;5033642;28;20045;-79
2022/09/13 02:23:12;;;;;;;8.95;5.38;;;;;;;11.03;100.00;100093.03;5034101;28;20546;-78
2022/09/13 02:25:41;;;;;;;7.43;5.60;;;;;;;11.07;100.00;100091.84;5033958;28;20037;-78
2022/09/13 02:28:16;;;;;;;11.80;5.47;;;;;;;11.10;100.00;100091.69;5033921;28;20542;-78
2022/09/13 02:30:52;;;;;;;7.03;4.65;;;;;;;11.03;100.00;100087.69;5034005;28;20048;-78
2022/09/13 02:33:27;;;;;;;11.52;5.47;;;;;;;10.79;100.00;100069.59;5034082;28;20041;-78
2022/09/13 02:36:00;;;;;;;7.72;4.82;;;;;;;10.77;100.00;100092.00;5034271;28;20038;-79
2022/09/13 02:38:32;;;;;;;8.63;5.65;;;;;;;10.72;100.00;100083.47;5033557;28;20471;-83
2022/09/13 02:41:07;;;;;;;9.40;5.50;;;;;;;10.71;100.00;100081.72;5034065;28;20041;-80
2022/09/13 02:43:40;;;;;;;11.98;5.18;;;;;;;10.80;100.00;100087.31;5033758;28;20041;-80
2022/09/13 02:46:20;;;;;;;8.25;5.03;;;;;;;10.86;100.00;100086.94;5034055;28;20072;-80
2022/09/13 02:48:58;;;;;;;11.55;5.07;;;;;;;10.84;100.00;100083.53;5033723;28;20056;-85
2022/09/13 02:51:33;;;;;;;9.07;5.50;;;;;;;10.85;100.00;100079.91;5034166;28;20042;-85
2022/09/13 02:54:28;;;;;;;8.10;5.20;;;;;;;10.89;100.00;100080.53;5034111;28;20128;-87
2022/09/13 02:57:04;;;;;;;9.35;4.82;;;;;;;10.92;100.00;100074.19;5034485;28;20092;-86
2022/09/13 02:59:33;;;;;;;8.77;5.13;;;;;;;10.93;100.00;100081.22;5034438;28;20502;-85
2022/09/13 03:02:05;;;;;;;10.10;4.78;;;;;;;10.79;100.00;100072.28;5035353;28;20141;-86
2022/09/13 03:04:35;;;;;;;9.43;4.85;;;;;;;10.67;100.00;100075.72;5040893;28;20037;-86
2022/09/13 03:07:06;;;;;;;12.60;5.43;;;;;;;10.58;100.00;100077.16;5044324;28;20056;-87
2022/09/13 03:09:34;;;;;;;10.98;5.55;;;;;;;10.50;100.00;100071.44;5044215;28;20045;-88
2022/09/13 03:12:24;;;;;;;10.90;5.38;;;;;;;10.44;100.00;100069.19;5044779;28;20100;-81
2022/09/13 03:14:58;;;;;;;10.32;5.20;;;;;;;10.42;100.00;100062.22;5034686;28;20473;-81
2022/09/13 03:17:41;;;;;;;9.32;5.68;;;;;;;10.36;100.00;100060.81;5034068;28;20117;-80
2022/09/13 03:20:14;;;;;;;;;;;;;;;10.31;100.00;100063.75;5033646;28;20077;-81
2022/09/13 03:23:17;;;;;;;9.07;5.55;;;;;;;10.45;100.00;100062.03;5033179;28;19921;-80
2022/09/13 03:26:06;;;;;;;8.75;5.15;;;;;;;10.50;100.00;100067.94;5029943;28;20053;-80
2022/09/13 03:28:44;;;;;;;10.55;5.30;;;;;;;10.49;100.00;100063.56;5032801;28;20045;-79
2022/09/13 03:31:18;;;;;;;9.23;5.50;;;;;;;10.46;100.00;100061.09;5032688;28;20037;-78
2022/09/13 03:33:55;;;;;;;9.73;4.65;;;;;;;10.35;100.00;100058.25;5032986;28;20049;-79
2022/09/13 03:36:33;;;;;;;8.32;5.50;;;;;;;10.51;100.00;100050.97;5033053;28;20120;-78
2022/09/13 03:39:09;;;;;;;7.78;4.88;;;;;;;10.48;100.00;100051.16;5032993;28;20041;-78
2022/09/13 03:41:46;;;;;;;8.40;4.88;;;;;;;10.37;100.00;100040.31;5032998;28;20401;-78
2022/09/13 03:44:19;;;;;;;8.73;5.03;;;;;;;10.29;100.00;100054.13;5032871;28;20498;-78
2022/09/13 03:46:51;;;;;;;9.50;5.22;;;;;;;10.19;100.00;100052.94;5032691;28;20283;-78
2022/09/13 03:49:22;;;;;;;9.25;4.90;;;;;;;10.20;100.00;100049.34;5032936;28;20053;-77
2022/09/13 03:51:53;;;;;;;11.07;4.70;;;;;;;10.17;100.00;100047.72;5031239;28;20397;-78
2022/09/13 03:54:24;;;;;;;7.75;4.72;;;;;;;10.11;100.00;100039.25;5032789;28;20062;-78
2022/09/13 03:57:11;;;;;;;10.25;4.90;;;;;;;10.11;100.00;100042.75;5031425;28;20045;-78
2022/09/13 03:59:43;;;;;;;10.13;4.97;;;;;;;10.00;100.00;100031.91;5032625;28;20385;-78
2022/09/13 04:02:11;;;;;;;9.20;4.72;;;;;;;9.97;100.00;100046.28;5033095;28;20447;-79
2022/09/13 04:04:41;;;;;;;11.77;4.90;;;;;;;9.92;100.00;100045.69;5032753;28;20135;-79
2022/09/13 04:07:12;;;;;;;11.68;5.60;;;;;;;9.86;100.00;100046.09;5032792;28;20091;-83
2022/09/13 04:09:41;;;;;;;8.15;4.65;;;;;;;9.90;100.00;100044.06;5032575;28;20072;-87
2022/09/13 04:12:09;;;;;;;8.25;4.47;;;;;;;9.96;100.00;100046.38;5032648;28;20420;-82
2022/09/13 04:14:38;;;;;;;10.38;4.85;;;;;;;9.93;100.00;100044.72;5032356;28;20045;-82
2022/09/13 04:17:07;;;;;;;8.13;4.80;;;;;;;9.94;100.00;100042.94;5032905;28;20050;-83
2022/09/13 04:19:35;;;;;;;9.80;4.93;;;;;;;9.92;100.00;100036.84;5032354;28;20124;-83
2022/09/13 04:22:03;;;;;;;8.32;4.50;;;;;;;9.95;100.00;100036.69;5032438;28;20484;-80
2022/09/13 04:24:33;;;;;;;6.55;4.72;;;;;;;9.99;100.00;100035.53;5033131;28;20057;-80
2022/09/13 04:27:01;;;;;;;11.30;5.47;;;;;;;10.00;100.00;100042.56;5032510;28;20041;-81
2022/09/13 04:29:30;;;;;;;11.40;5.65;;;;;;;9.98;100.00;100042.66;5032794;28;20435;-82
2022/09/13 04:31:59;;;;;;;11.65;6.25;;;;;;;9.99;100.00;100046.19;5032843;28;20045;-82
2022/09/13 04:34:27;;;;;;;12.52;5.82;;;;;;;9.97;100.00;100034.78;5031487;28;20067;-85
2022/09/13 04:36:55;;;;;;;9.63;5.47;;;;;;;9.99;100.00;100044.38;5031695;28;20053;-81
2022/09/13 04:39:24;;;;;;;9.80;4.93;;;;;;;10.02;100.00;100040.66;5030852;28;20480;-81
2022/09/13 04:41:54;;;;;;;9.38;4.90;;;;;;;10.15;100.00;100043.44;5031267;28;20124;-78
2022/09/13 04:44:23;;;;;;;10.50;5.40;;;;;;;10.39;100.00;100049.09;5034807;28;20045;-79
2022/09/13 04:46:51;;;;;;;8.50;5.07;;;;;;;10.43;100.00;100046.16;5034920;28;20056;-80
2022/09/13 04:49:20;;;;;;;13.18;6.00;;;;;;;10.51;100.00;100048.31;5034332;28;20192;-79
2022/09/13 04:51:48;;;;;;;9.18;5.63;;;;;;;10.62;100.00;100051.19;5034206;28;20111;-80
2022/09/13 04:54:17;;;;;;;8.50;5.20;;;;;;;10.61;100.00;100046.75;5034625;28;20058;-76
2022/09/13 04:56:45;;;;;;;12.13;5.18;;;;;;;10.70;100.00;100048.84;5033746;28;20073;-74
2022/09/13 04:59:15;;;;;;;11.88;5.40;;;;;;;10.75;100.00;100052.09;5034015;28;20045;-79
2022/09/13 05:01:44;;;;;;;8.45;5.28;;;;;;;10.75;100.00;100061.91;5034339;28;20088;-79
2022/09/13 05:04:14;;;;;;;11.63;5.95;;;;;;;10.79;100.00;100056.25;5033921;28;20046;-78
2022/09/13 05:06:42;;;;;;;10.73;5.82;;;;;;;10.83;100.00;100060.47;5033637;28;20045;-79
2022/09/13 05:09:14;;;;;;;8.93;5.47;;;;;;;10.99;100.00;100070.13;5034298;28;20128;-79
2022/09/13 05:11:42;;;;;;;11.80;6.18;;;;;;;10.99;100.00;100070.13;5032525;28;20056;-78
2022/09/13 05:14:11;;;;;;;8.98;5.70;;;;;;;11.14;100.00;100066.47;5033964;28;20056;-78
2022/09/13 05:16:41;;;;;;;12.23;5.88;;;;;;;11.28;100.00;100065.56;5033583;28;20073;-79
2022/09/13 05:19:10;;;;;;;9.77;5.95;;;;;;;11.43;100.00;100068.09;5033584;28;20041;-80
2022/09/13 05:21:38;;;;;;;8.93;5.78;;;;;;;11.57;100.00;100074.31;5033408;28;20045;-80
2022/09/13 05:24:07;;;;;;;11.90;5.80;;;;;;;11.84;100.00;100067.13;5032244;28;20504;-78
2022/09/13 05:26:35;;;;;;;12.57;5.72;;;;;;;11.69;100.00;100076.19;5033836;28;20069;-81
2022/09/13 05:29:04;;;;;;;10.48;5.88;;;;;;;11.93;100.00;100069.19;5033665;28;20049;-80
2022/09/13 05:31:35;;;;;;;15.15;6.07;;;;;;;11.89;100.00;100067.69;5033610;28;20087;-80
2022/09/13 05:34:06;;;;;;;12.10;6.30;;;;;;;12.00;100.00;100065.13;5033604;28;20476;-80
2022/09/13 05:36:34;;;;;;;10.02;5.88;;;;;;;12.02;100.00;100070.38;5033377;28;20100;-79
2022/09/13 05:39:04;;;;;;;11.73;6.22;;;;;;;12.14;100.00;100066.84;5033122;28;20041;-79
2022/09/13 05:41:52;;;;;;;14.27;6.65;;;;;;;12.27;100.00;100074.88;5031704;28;20042;-79
2022/09/13 05:44:20;;;;;;;14.32;6.80;;;;;;;12.29;100.00;100064.94;5033298;28;20407;-79
2022/09/13 05:46:48;;;;;;;12.05;5.60;;;;;;;12.32;100.00;100070.06;5032987;28;20049;-79
2022/09/13 05:49:18;;;;;;;11.35;5.82;;;;;;;12.45;100.00;100064.69;5033119;28;20046;-80
2022/09/13 05:51:46;;;;;;;9.93;5.88;;;;;;;12.43;100.00;100054.09;5032672;28;20468;-79
2022/09/13 05:54:14;;;;;;;10.60;5.60;;;;;;;12.56;100.00;100052.28;5032139;28;20081;-79
2022/09/13 05:56:42;;;;;;;10.60;5.32;;;;;;;12.75;100.00;100053.63;5031025;28;20046;-79
2022/09/13 05:59:12;;;;;;;10.93;6.82;;;;;;;12.75;100.00;100053.63;5033001;28;20045;-79
2022/09/13 06:01:42;;;;;;;8.52;5.30;;;;;;;12.78;100.00;100062.28;5031534;28;20103;-79
2022/09/13 06:04:11;;;;;;;11.90;5.70;;;;;;;12.93;100.00;100065.66;5032855;28;20095;-78
2022/09/13 06:06:41;;;;;;;12.95;5.47;;;;;;;13.13;100.00;100072.25;5031185;28;20099;-82
2022/09/13 06:09:11;;;;;;;11.68;5.50;;;;;;;13.15;100.00;100076.53;5032849;28;20104;-80
2022/09/13 06:11:40;;;;;;;12.43;5.28;;;;;;;13.06;100.00;100069.16;5032715;28;20488;-82
2022/09/13 06:14:09;;;;;;;10.10;4.70;;;;;;;13.31;100.00;100078.09;5032961;28;20088;-79
2022/09/13 06:16:38;;;;;;;12.70;5.60;;;;;;;13.16;100.00;100078.22;5031333;28;20077;-76
2022/09/13 06:19:06;;;;;;;9.48;5.15;;;;;;;13.45;100.00;100073.41;5031212;28;20051;-78
2022/09/13 06:21:54;;;;;;;9.70;5.05;;;;;;;13.68;100.00;100070.81;5032487;28;20124;-80
2022/09/13 06:24:25;;;;;;;11.23;5.20;;;;;;;13.82;100.00;100069.78;5030968;28;20045;-74
2022/09/13 06:26:53;;;;;;;9.98;5.45;;;;;;;13.91;100.00;100069.09;5032144;28;20042;-75
2022/09/13 06:29:22;;;;;;;9.70;5.32;;;;;;;14.04;100.00;100069.84;5032474;28;20041;-75
2022/09/13 06:31:50;;;;;;;10.60;5.38;;;;;;;14.12;100.00;100071.94;5030738;28;20061;-72
2022/09/13 06:34:18;;;;;;;9.60;5.30;;;;;;;14.29;100.00;100079.53;5032496;28;20389;-73
2022/09/13 06:36:46;;;;;;;9.10;5.32;;;;;;;14.56;100.00;100074.69;5032122;28;20049;-73
2022/09/13 06:39:16;;;;;;;10.65;5.07;;;;;;;14.69;100.00;100077.25;5032423;28;20451;-74
2022/09/13 06:41:44;;;;;;;9.13;4.80;;;;;;;14.98;100.00;100076.75;5032064;28;20061;-77
2022/09/13 06:44:12;;;;;;;9.45;4.88;;;;;;;15.51;100.00;100079.53;5032129;28;20103;-73
2022/09/13 06:46:40;;;;;;;9.88;4.80;;;;;;;15.88;100.00;100078.16;5030527;28;20046;-76
2022/09/13 06:49:10;;;;;;;9.50;5.03;;;;;;;15.96;100.00;100075.69;5032516;28;20087;-76
2022/09/13 06:51:38;;;;;;;9.95;4.53;;;;;;;15.96;100.00;100067.63;5032069;28;20049;-76
2022/09/13 06:54:06;;;;;;;10.23;5.15;;;;;;;15.92;100.00;100068.88;5030240;28;20061;-76
2022/09/13 06:56:39;;;;;;;10.27;5.18;;;;;;;15.50;100.00;100081.34;5032059;28;20041;-76
2022/09/13 06:59:13;;;;;;;8.25;4.70;;;;;;;15.65;100.00;100076.56;5046909;28;20048;-76
2022/09/13 07:01:43;;;;;;;10.02;5.15;;;;;;;15.55;100.00;100072.94;5032058;28;20045;-76
2022/09/13 07:04:13;;;;;;;11.15;4.57;;;;;;;15.50;100.00;100073.28;5031673;28;20045;-76
2022/09/13 07:06:44;;;;;;;7.97;4.47;;;;;;;15.60;100.00;100076.06;5032088;28;20167;-76
2022/09/13 07:09:16;;;;;;;7.00;4.65;;;;;;;15.69;100.00;100075.31;5032032;28;20045;-76
2022/09/13 07:11:46;;;;;;;6.53;4.18;;;;;;;15.61;100.00;100085.88;5031305;28;20421;-78
2022/09/13 07:14:17;;;;;;;6.88;4.50;;;;;;;15.56;100.00;100077.31;5031779;28;20148;-76
2022/09/13 07:16:46;;;;;;;7.60;5.03;;;;;;;15.53;100.00;100077.56;5031611;28;20060;-77
2022/09/13 07:19:19;;;;;;;10.95;5.03;;;;;;;15.51;100.00;100084.91;5029675;28;20444;-76
2022/09/13 07:21:49;;;;;;;8.57;5.07;;;;;;;15.67;100.00;100077.28;5030356;28;20488;-76
2022/09/13 07:24:21;;;;;;;10.68;5.30;;;;;;;15.79;100.00;100075.41;5029142;28;20057;-76
2022/09/13 07:26:51;;;;;;;8.05;5.03;;;;;;;15.86;100.00;100090.91;5030728;28;20099;-76
2022/09/13 07:29:22;;;;;;;8.52;4.95;;;;;;;15.93;100.00;100075.94;5029488;28;20096;-76
2022/09/13 07:31:53;;;;;;;10.23;5.18;;;;;;;15.90;100.00;100075.34;5031032;28;20490;-76
2022/09/13 07:34:22;;;;;;;10.98;4.72;;;;;;;16.04;100.00;100077.72;5029810;28;20053;-76
2022/09/13 07:36:51;;;;;;;5.57;3.58;;;;;;;16.31;100.00;100071.81;5029348;28;20472;-76
2022/09/13 07:39:19;;;;;;;6.63;3.75;;;;;;;16.38;100.00;100075.66;5029632;28;20548;-76
2022/09/13 07:41:52;;;;;;;6.85;3.30;;;;;;;16.47;100.00;100074.84;5030776;28;20514;-76
2022/09/13 07:44:21;;;;;;;8.85;4.10;;;;;;;16.51;100.00;100075.44;5029933;28;20056;-76
2022/09/13 07:46:49;;;;;;;6.35;3.70;;;;;;;16.70;100.00;100074.72;5030856;28;20131;-76
2022/09/13 07:49:19;;;;;;;6.90;3.58;;;;;;;16.78;100.00;100083.78;5031401;28;20121;-76
2022/09/13 07:51:49;;;;;;;8.35;3.65;;;;;;;16.86;100.00;100080.44;5031133;28;20049;-77
2022/09/13 07:54:20;;;;;;;7.75;3.50;;;;;;;16.96;100.00;100080.47;5031126;28;20452;-76
2022/09/13 07:56:50;;;;;;;6.93;3.78;;;;;;;16.90;100.00;100087.25;5030876;28;20055;-77
2022/09/13 07:59:20;;;;;;;6.65;3.22;;;;;;;16.91;100.00;100080.88;5029678;28;20049;-76
2022/09/13 08:01:50;;;;;;;6.30;3.13;;;;;;;17.08;100.00;100079.34;5029630;28;20050;-76
2022/09/13 08:04:21;;;;;;;6.80;3.00;;;;;;;17.17;100.00;100079.38;5031250;28;20041;-76
2022/09/13 08:06:49;;;;;;;6.55;3.10;;;;;;;17.25;100.00;100070.59;5030823;28;20064;-77
2022/09/13 08:09:17;;;;;;;6.57;3.35;;;;;;;17.23;100.00;100074.44;5029691;28;20471;-76
2022/09/13 08:11:47;;;;;;;6.05;3.08;;;;;;;17.29;100.00;100072.03;5029592;28;20056;-76
2022/09/13 08:14:17;;;;;;;7.60;3.00;;;;;;;17.20;100.00;100074.72;5029512;28;20393;-76
2022/09/13 08:16:47;;;;;;;5.85;2.83;;;;;;;17.32;100.00;100076.28;5033152;28;20067;-76
2022/09/13 08:19:16;;;;;;;5.50;2.83;;;;;;;17.33;100.00;100072.59;5033374;28;20051;-76
2022/09/13 08:21:45;;;;;;;7.25;2.80;;;;;;;17.39;100.00;100078.28;5034627;28;20045;-76
2022/09/13 08:24:15;;;;;;;7.05;2.42;;;;;;;17.38;100.00;100073.06;5033380;28;20108;-76
2022/09/13 08:26:44;;;;;;;5.10;2.78;;;;;;;17.41;100.00;100084.41;5034709;28;20077;-76
2022/09/13 08:29:14;;;;;;;5.97;2.70;;;;;;;17.49;100.00;100078.31;5034655;28;20057;-76
2022/09/13 08:31:42;;;;;;;6.43;2.53;;;;;;;17.64;100.00;100076.88;5033277;28;20049;-76
2022/09/13 08:34:13;;;;;;;6.10;2.72;;;;;;;17.70;100.00;100072.81;5032709;28;20049;-76
2022/09/13 08:36:41;;;;;;;6.75;2.95;;;;;;;17.87;100.00;100066.69;5034967;28;20073;-76
2022/09/13 08:39:11;;;;;;;5.82;2.90;;;;;;;17.94;100.00;100066.97;5034249;28;20057;-76
2022/09/13 08:42:01;;;;;;;7.30;2.92;;;;;;;17.91;100.00;100064.56;5033989;28;20481;-76
2022/09/13 08:44:31;;;;;;;6.53;2.97;;;;;;;17.85;88.93;100057.03;5021697;28;20085;-75
2022/09/13 08:47:09;;;;;;;6.80;2.85;;;;;;;17.84;80.82;100058.03;5032266;28;20053;-76
2022/09/13 08:49:43;;;;;;;4.95;2.95;;;;;;;17.84;75.23;100066.13;5033969;28;20041;-75
2022/09/13 08:52:24;;;;;;;5.57;2.80;;;;;;;17.94;73.65;100064.25;5033876;28;20049;-76
2022/09/13 08:54:54;;;;;;;4.82;2.60;;;;;;;17.94;74.03;100069.66;5031446;28;20389;-76
2022/09/13 08:57:32;;;;;;;6.63;2.53;;;;;;;17.89;73.08;100058.47;5031446;28;20407;-75
2022/09/13 09:00:08;;;;;;;5.88;2.95;;;;;;;17.96;74.46;100056.91;5033757;28;20045;-76
2022/09/13 09:02:54;;;;;;;8.45;3.03;;;;;;;18.13;70.12;100056.13;5032201;28;20053;-76
2022/09/13 09:05:27;;;;;;;6.43;2.80;;;;;;;18.19;68.69;100055.56;5034266;28;20046;-76
2022/09/13 09:08:01;;;;;;;7.15;3.03;;;;;;;18.14;70.43;100060.53;5033738;28;20065;-76
2022/09/13 09:10:32;;;;;;;8.68;3.10;;;;;;;18.23;69.36;100050.69;5032645;28;20132;-75
2022/09/13 09:13:06;;;;;;;9.13;2.60;;;;;;;18.30;67.56;100059.94;5032479;28;20053;-76
2022/09/13 09:15:37;;;;;;;7.88;2.80;;;;;;;18.30;69.05;100058.09;5034487;28;20051;-75
2022/09/13 09:18:10;;;;;;;6.35;2.40;;;;;;;18.38;66.77;100053.81;5032593;28;20053;-75
2022/09/13 09:20:41;;;;;;;;;;;;;;;18.44;66.58;100050.53;5032865;28;20053;-76
2022/09/13 09:23:17;;;;;;;6.38;2.42;;;;;;;18.50;65.33;100047.22;5033804;28;19925;-76
2022/09/13 09:25:52;;;;;;;4.63;2.58;;;;;;;18.55;59.08;100044.94;5032503;28;20045;-75
2022/09/13 09:28:20;;;;;;;8.95;2.80;;;;;;;18.52;58.71;100042.50;5033511;28;20069;-75
2022/09/13 09:30:58;;;;;;;6.50;2.63;;;;;;;18.56;57.24;100036.69;5033912;28;20099;-75
2022/09/13 09:33:44;;;;;;;4.20;2.05;;;;;;;18.52;56.68;100035.25;5033967;28;20053;-75
2022/09/13 09:36:23;;;;;;;3.80;2.20;;;;;;;18.58;55.86;100033.81;5033589;28;20558;-75
2022/09/13 09:38:52;;;;;;;6.10;2.40;;;;;;;18.53;56.44;100036.13;5032185;28;20053;-83
2022/09/13 09:41:27;;;;;;;6.22;2.70;;;;;;;18.56;56.20;100030.44;5033783;28;20073;-76
2022/09/13 09:44:03;;;;;;;5.53;2.67;;;;;;;18.68;55.82;100029.25;5033698;28;20072;-78
2022/09/13 09:46:36;;;;;;;6.25;2.83;;;;;;;18.73;56.06;100026.97;5034334;28;20045;-77
2022/09/13 09:51:59;;;;;;;9.18;2.63;;;;;;;18.93;56.95;100027.72;5030913;28;20054;-77
2022/09/13 09:54:30;;;;;;;6.35;2.80;;;;;;;19.05;56.57;100031.06;5031872;28;20061;-76
2022/09/13 09:56:58;;;;;;;7.43;2.90;;;;;;;19.03;56.40;100016.84;5033225;28;20554;-77
2022/09/13 09:59:31;;;;;;;7.07;2.88;;;;;;;19.10;57.35;100017.91;5033278;28;20048;-76
2022/09/13 10:02:00;;;;;;;9.93;2.67;;;;;;;19.28;57.01;99999.84;5033092;28;20038;-76
2022/09/13 10:04:29;;;;;;;5.80;2.60;;;;;;;19.37;56.46;100007.03;5032645;28;20117;-76
2022/09/13 10:07:24;;;;;;;4.88;2.70;;;;;;;19.39;55.82;99994.22;5032498;28;20091;-76
2022/09/13 10:10:04;;;;;;;4.85;2.90;;;;;;;19.49;56.01;99985.16;5032652;28;20042;-76
2022/09/13 10:12:34;;;;;;;5.97;2.92;;;;;;;19.64;54.54;99979.09;5031082;28;20520;-76
2022/09/13 10:15:15;;;;;;;5.65;3.05;;;;;;;19.67;53.59;99975.22;5032380;28;20377;-76
2022/09/13 10:17:43;;;;;;;7.13;2.90;;;;;;;19.61;54.16;99978.56;5032577;28;20108;-76
2022/09/13 10:20:26;;;;;;;5.00;2.72;;;;;;;19.83;53.44;99982.63;5032110;28;20107;-76
2022/09/13 10:26:01;;;;;;;6.15;2.80;;;;;;;19.97;50.87;99974.75;5103853;27;1272607;-75
2022/09/13 10:28:32;;;;;;;5.28;2.60;;;;;;;19.99;50.58;99970.03;5129102;28;20086;-75
2022/09/13 10:31:04;;;;;;;8.23;2.70;;;;;;;20.09;50.26;99967.22;5129170;28;20541;-76
2022/09/13 10:33:35;;;;;;;6.10;3.03;;;;;;;20.29;49.39;99968.69;5110486;28;20394;-75
2022/09/13 10:36:08;;;;;;;4.32;2.47;;;;;;;20.23;49.89;99963.91;5129094;28;20295;-76
2022/09/13 10:38:39;;;;;;;4.05;2.40;;;;;;;20.41;49.92;99955.72;5129603;28;20460;-75
2022/09/13 10:41:24;;;;;;;7.35;2.40;;;;;;;20.37;49.86;99957.06;5110118;28;20472;-77
2022/09/13 10:43:57;;;;;;;5.20;2.55;;;;;;;20.40;49.53;99945.88;5129101;28;20424;-77
2022/09/13 10:46:28;;;;;;;6.10;2.55;;;;;;;20.37;49.76;99958.91;5110297;28;20047;-76
2022/09/13 10:48:57;;;;;;;6.20;2.42;;;;;;;20.44;50.21;99954.56;5110892;28;20051;-77
2022/09/13 10:51:34;;;;;;;6.97;2.58;;;;;;;20.58;47.93;99965.63;5129617;28;20114;-77
2022/09/13 10:54:17;;;;;;;5.70;2.80;;;;;;;20.38;47.98;99961.47;5129041;28;20533;-77
2022/09/13 10:56:47;;;;;;;5.57;2.33;;;;;;;20.46;48.96;99963.38;5129647;28;20065;-77
2022/09/13 10:59:21;;;;;;;7.13;2.50;;;;;;;20.45;47.75;99957.09;5129192;28;20051;-77
2022/09/13 11:02:14;;;;;;;6.07;2.60;;;;;;;20.65;46.68;99959.53;5129669;28;20102;-76
2022/09/13 11:05:20;;;;;;;9.00;2.88;;;;;;;20.64;47.81;99961.41;5129176;28;20047;-76
2022/09/13 11:08:24;;;;;;;6.68;2.60;;;;;;;20.61;46.99;99950.91;5129194;28;20043;-78
2022/09/13 11:11:00;;;;;;;;;;;;;;;20.52;47.33;99954.59;5124809;28;20066;-77
2022/09/13 11:13:39;;;;;;;4.82;2.40;;;;;;;20.86;46.73;99943.72;5129010;28;19923;-77
2022/09/13 11:16:26;;;;;;;8.38;2.75;;;;;;;21.03;46.70;99942.69;5129105;28;20039;-77
2022/09/13 11:19:02;;;;;;;;;;;;;;;21.06;46.00;99950.53;5129626;28;20409;-77
2022/09/13 11:21:47;;;;;;;5.03;2.40;;;;;;;21.02;45.45;99941.00;5128975;28;19926;-75
2022/09/13 11:24:39;;;;;;;8.02;2.85;;;;;;;20.97;46.22;99943.38;5128718;27;20142;-76
2022/09/13 11:27:17;;;;;;;5.57;2.50;;;;;;;21.12;46.06;99939.00;5110094;28;20055;-76
2022/09/13 11:30:09;;;;;;;5.00;2.17;;;;;;;21.03;46.46;99931.84;5110185;28;20052;-76
2022/09/13 11:33:16;;;;;;;7.13;2.65;;;;;;;20.91;46.88;99930.50;5128476;28;20043;-76
2022/09/13 11:35:54;;;;;;;5.85;2.50;;;;;;;20.91;47.96;99925.06;5122685;28;20047;-76
2022/09/13 11:38:36;;;;;;;6.45;2.72;;;;;;;20.93;48.32;99912.19;5114561;28;20043;-76
2022/09/13 11:41:13;;;;;;;6.18;2.55;;;;;;;20.93;47.80;99911.34;5114711;28;20035;-77
2022/09/13 11:43:57;;;;;;;6.20;2.97;;;;;;;20.90;47.71;99908.97;5096700;28;20048;-76
2022/09/13 11:46:35;;;;;;;6.05;2.78;;;;;;;20.99;47.43;99910.69;5114955;28;20035;-76
2022/09/13 11:49:30;;;;;;;4.82;2.60;;;;;;;20.94;46.43;99903.06;5114520;28;20050;-77
2022/09/13 11:52:09;;;;;;;7.93;2.60;;;;;;;20.94;46.81;99897.66;5096131;28;20523;-76
2022/09/13 11:54:58;;;;;;;5.90;2.75;;;;;;;20.75;47.89;99895.22;5114363;28;20458;-76